sensor_id;sensor_type;location;lat;lon;timestamp;P1;durP1;ratioP1;P2;durP2;ratioP2
49910;SDS011;35803;53.096;5.844;2023-04-25T00:01:23;7.75;;;1.80;;
49910;SDS011;35803;53.096;5.844;2023-04-25T00:03:49;5.32;;;2.00;;
49910;SDS011;35803;53.096;5.844;2023-04-25T00:06:15;8.23;;;2.35;;
49910;SDS011;35803;53.096;5.844;2023-04-25T00:08:41;5.80;;;2.03;;
49910;SDS011;35803;53.096;5.844;2023-04-25T00:11:06;6.47;;;2.22;;
49910;SDS011;35803;53.096;5.844;2023-04-25T00:13:32;12.77;;;2.40;;
49910;SDS011;35803;53.096;5.844;2023-04-25T00:15:58;5.47;;;1.95;;
49910;SDS011;35803;53.096;5.844;2023-04-25T00:18:25;8.10;;;2.33;;
49910;SDS011;35803;53.096;5.844;2023-04-25T00:20:54;9.70;;;2.05;;
49910;SDS011;35803;53.096;5.844;2023-04-25T00:23:20;9.15;;;2.00;;
49910;SDS011;35803;53.096;5.844;2023-04-25T00:25:47;9.10;;;2.10;;
49910;SDS011;35803;53.096;5.844;2023-04-25T00:28:14;6.57;;;2.05;;
49910;SDS011;35803;53.096;5.844;2023-04-25T00:30:40;8.20;;;2.38;;
49910;SDS011;35803;53.096;5.844;2023-04-25T00:33:06;10.35;;;2.20;;
49910;SDS011;35803;53.096;5.844;2023-04-25T00:35:32;7.47;;;2.10;;
49910;SDS011;35803;53.096;5.844;2023-04-25T00:37:58;9.30;;;2.42;;
49910;SDS011;35803;53.096;5.844;2023-04-25T00:40:23;7.05;;;2.00;;
49910;SDS011;35803;53.096;5.844;2023-04-25T00:42:49;5.25;;;1.92;;
49910;SDS011;35803;53.096;5.844;2023-04-25T00:45:17;7.93;;;1.95;;
49910;SDS011;35803;53.096;5.844;2023-04-25T00:47:43;7.13;;;1.70;;
49910;SDS011;35803;53.096;5.844;2023-04-25T00:50:09;4.95;;;1.70;;
49910;SDS011;35803;53.096;5.844;2023-04-25T00:52:35;6.70;;;1.55;;
49910;SDS011;35803;53.096;5.844;2023-04-25T00:55:02;9.05;;;1.33;;
49910;SDS011;35803;53.096;5.844;2023-04-25T00:57:28;5.63;;;1.92;;
49910;SDS011;35803;53.096;5.844;2023-04-25T00:59:55;4.88;;;1.60;;
49910;SDS011;35803;53.096;5.844;2023-04-25T01:02:20;4.53;;;1.55;;
49910;SDS011;35803;53.096;5.844;2023-04-25T01:04:47;3.80;;;1.33;;
49910;SDS011;35803;53.096;5.844;2023-04-25T01:07:13;3.10;;;1.35;;
49910;SDS011;35803;53.096;5.844;2023-04-25T01:09:39;4.88;;;1.48;;
49910;SDS011;35803;53.096;5.844;2023-04-25T01:12:04;6.07;;;1.70;;
49910;SDS011;35803;53.096;5.844;2023-04-25T01:14:33;3.17;;;1.20;;
49910;SDS011;35803;53.096;5.844;2023-04-25T01:16:59;6.28;;;1.45;;
49910;SDS011;35803;53.096;5.844;2023-04-25T01:19:24;3.03;;;1.35;;
49910;SDS011;35803;53.096;5.844;2023-04-25T01:21:50;6.07;;;1.55;;
49910;SDS011;35803;53.096;5.844;2023-04-25T01:24:15;6.97;;;1.75;;
49910;SDS011;35803;53.096;5.844;2023-04-25T01:26:42;7.47;;;1.85;;
49910;SDS011;35803;53.096;5.844;2023-04-25T01:29:18;8.18;;;2.00;;
49910;SDS011;35803;53.096;5.844;2023-04-25T01:31:47;7.70;;;1.90;;
49910;SDS011;35803;53.096;5.844;2023-04-25T01:34:12;3.35;;;1.15;;
49910;SDS011;35803;53.096;5.844;2023-04-25T01:36:38;5.55;;;1.95;;
49910;SDS011;35803;53.096;5.844;2023-04-25T01:39:06;3.63;;;1.50;;
49910;SDS011;35803;53.096;5.844;2023-04-25T01:41:32;5.85;;;1.70;;
49910;SDS011;35803;53.096;5.844;2023-04-25T01:43:59;3.78;;;1.30;;
49910;SDS011;35803;53.096;5.844;2023-04-25T01:46:25;1.38;;;1.00;;
49910;SDS011;35803;53.096;5.844;2023-04-25T01:48:51;5.13;;;1.20;;
49910;SDS011;35803;53.096;5.844;2023-04-25T01:51:17;1.63;;;1.10;;
49910;SDS011;35803;53.096;5.844;2023-04-25T01:53:45;4.57;;;1.27;;
49910;SDS011;35803;53.096;5.844;2023-04-25T01:56:11;1.92;;;0.93;;
49910;SDS011;35803;53.096;5.844;2023-04-25T01:58:36;4.22;;;1.35;;
49910;SDS011;35803;53.096;5.844;2023-04-25T02:01:02;6.93;;;1.50;;
49910;SDS011;35803;53.096;5.844;2023-04-25T02:03:27;4.07;;;1.48;;
49910;SDS011;35803;53.096;5.844;2023-04-25T02:05:54;5.80;;;1.40;;
49910;SDS011;35803;53.096;5.844;2023-04-25T02:08:22;3.80;;;1.10;;
49910;SDS011;35803;53.096;5.844;2023-04-25T02:10:50;6.70;;;1.50;;
49910;SDS011;35803;53.096;5.844;2023-04-25T02:13:15;2.72;;;1.20;;
49910;SDS011;35803;53.096;5.844;2023-04-25T02:15:41;3.42;;;1.00;;
49910;SDS011;35803;53.096;5.844;2023-04-25T02:18:06;2.40;;;0.98;;
49910;SDS011;35803;53.096;5.844;2023-04-25T02:20:32;4.68;;;1.20;;
49910;SDS011;35803;53.096;5.844;2023-04-25T02:22:58;2.60;;;0.90;;
49910;SDS011;35803;53.096;5.844;2023-04-25T02:25:23;3.10;;;1.63;;
49910;SDS011;35803;53.096;5.844;2023-04-25T02:27:49;3.97;;;1.65;;
49910;SDS011;35803;53.096;5.844;2023-04-25T02:30:16;5.57;;;1.38;;
49910;SDS011;35803;53.096;5.844;2023-04-25T02:32:42;3.30;;;1.00;;
49910;SDS011;35803;53.096;5.844;2023-04-25T02:35:07;2.88;;;1.20;;
49910;SDS011;35803;53.096;5.844;2023-04-25T02:37:33;2.47;;;1.05;;
49910;SDS011;35803;53.096;5.844;2023-04-25T02:40:00;3.72;;;1.10;;
49910;SDS011;35803;53.096;5.844;2023-04-25T02:42:26;2.17;;;1.20;;
49910;SDS011;35803;53.096;5.844;2023-04-25T02:44:52;3.40;;;1.20;;
49910;SDS011;35803;53.096;5.844;2023-04-25T02:47:18;2.38;;;1.15;;
49910;SDS011;35803;53.096;5.844;2023-04-25T02:49:44;4.00;;;1.20;;
49910;SDS011;35803;53.096;5.844;2023-04-25T02:52:10;3.97;;;1.40;;
49910;SDS011;35803;53.096;5.844;2023-04-25T02:54:36;2.20;;;1.10;;
49910;SDS011;35803;53.096;5.844;2023-04-25T02:57:01;2.83;;;1.58;;
49910;SDS011;35803;53.096;5.844;2023-04-25T02:59:28;4.35;;;1.33;;
49910;SDS011;35803;53.096;5.844;2023-04-25T03:01:53;5.60;;;1.30;;
49910;SDS011;35803;53.096;5.844;2023-04-25T03:04:19;3.72;;;1.02;;
49910;SDS011;35803;53.096;5.844;2023-04-25T03:06:46;5.78;;;1.13;;
49910;SDS011;35803;53.096;5.844;2023-04-25T03:09:11;7.18;;;1.15;;
49910;SDS011;35803;53.096;5.844;2023-04-25T03:11:38;5.00;;;1.40;;
49910;SDS011;35803;53.096;5.844;2023-04-25T03:14:04;7.78;;;1.23;;
49910;SDS011;35803;53.096;5.844;2023-04-25T03:16:30;4.85;;;1.52;;
49910;SDS011;35803;53.096;5.844;2023-04-25T03:18:56;3.25;;;1.00;;
49910;SDS011;35803;53.096;5.844;2023-04-25T03:21:22;10.00;;;1.92;;
49910;SDS011;35803;53.096;5.844;2023-04-25T03:23:47;3.60;;;1.23;;
49910;SDS011;35803;53.096;5.844;2023-04-25T03:26:13;4.78;;;1.40;;
49910;SDS011;35803;53.096;5.844;2023-04-25T03:28:38;6.22;;;1.38;;
49910;SDS011;35803;53.096;5.844;2023-04-25T03:31:05;5.28;;;1.48;;
49910;SDS011;35803;53.096;5.844;2023-04-25T03:33:31;6.75;;;1.80;;
49910;SDS011;35803;53.096;5.844;2023-04-25T03:35:57;2.72;;;1.10;;
49910;SDS011;35803;53.096;5.844;2023-04-25T03:38:22;2.25;;;1.17;;
49910;SDS011;35803;53.096;5.844;2023-04-25T03:40:48;3.65;;;1.15;;
49910;SDS011;35803;53.096;5.844;2023-04-25T03:43:13;4.80;;;1.38;;
49910;SDS011;35803;53.096;5.844;2023-04-25T03:45:39;5.50;;;1.50;;
49910;SDS011;35803;53.096;5.844;2023-04-25T03:48:04;7.63;;;1.33;;
49910;SDS011;35803;53.096;5.844;2023-04-25T03:50:30;6.10;;;1.30;;
49910;SDS011;35803;53.096;5.844;2023-04-25T03:52:55;3.85;;;1.35;;
49910;SDS011;35803;53.096;5.844;2023-04-25T03:55:21;9.57;;;1.67;;
49910;SDS011;35803;53.096;5.844;2023-04-25T03:57:46;9.25;;;1.50;;
49910;SDS011;35803;53.096;5.844;2023-04-25T04:00:12;3.28;;;1.00;;
49910;SDS011;35803;53.096;5.844;2023-04-25T04:02:38;5.38;;;1.10;;
49910;SDS011;35803;53.096;5.844;2023-04-25T04:05:04;4.13;;;1.20;;
49910;SDS011;35803;53.096;5.844;2023-04-25T04:07:30;3.05;;;1.20;;
49910;SDS011;35803;53.096;5.844;2023-04-25T04:09:58;5.78;;;1.35;;
49910;SDS011;35803;53.096;5.844;2023-04-25T04:12:24;4.05;;;1.02;;
49910;SDS011;35803;53.096;5.844;2023-04-25T04:14:49;3.40;;;1.00;;
49910;SDS011;35803;53.096;5.844;2023-04-25T04:17:15;5.60;;;1.42;;
49910;SDS011;35803;53.096;5.844;2023-04-25T04:19:41;2.85;;;1.10;;
49910;SDS011;35803;53.096;5.844;2023-04-25T04:22:06;7.43;;;1.50;;
49910;SDS011;35803;53.096;5.844;2023-04-25T04:24:32;4.88;;;1.55;;
49910;SDS011;35803;53.096;5.844;2023-04-25T04:26:57;4.05;;;1.25;;
49910;SDS011;35803;53.096;5.844;2023-04-25T04:29:24;5.00;;;1.13;;
49910;SDS011;35803;53.096;5.844;2023-04-25T04:31:50;4.13;;;1.30;;
49910;SDS011;35803;53.096;5.844;2023-04-25T04:34:17;4.85;;;1.13;;
49910;SDS011;35803;53.096;5.844;2023-04-25T04:36:44;4.93;;;1.40;;
49910;SDS011;35803;53.096;5.844;2023-04-25T04:39:12;4.03;;;1.13;;
49910;SDS011;35803;53.096;5.844;2023-04-25T04:41:38;4.55;;;1.60;;
49910;SDS011;35803;53.096;5.844;2023-04-25T04:44:05;3.70;;;1.50;;
49910;SDS011;35803;53.096;5.844;2023-04-25T04:46:32;3.67;;;1.25;;
49910;SDS011;35803;53.096;5.844;2023-04-25T04:49:05;2.33;;;1.10;;
49910;SDS011;35803;53.096;5.844;2023-04-25T04:51:31;4.07;;;0.90;;
49910;SDS011;35803;53.096;5.844;2023-04-25T04:53:58;2.95;;;1.10;;
49910;SDS011;35803;53.096;5.844;2023-04-25T04:56:27;1.73;;;1.10;;
49910;SDS011;35803;53.096;5.844;2023-04-25T04:58:56;7.03;;;1.30;;
49910;SDS011;35803;53.096;5.844;2023-04-25T05:01:25;3.42;;;1.52;;
49910;SDS011;35803;53.096;5.844;2023-04-25T05:03:51;4.95;;;1.20;;
49910;SDS011;35803;53.096;5.844;2023-04-25T05:06:18;5.65;;;1.10;;
49910;SDS011;35803;53.096;5.844;2023-04-25T05:08:44;2.83;;;1.05;;
49910;SDS011;35803;53.096;5.844;2023-04-25T05:11:10;7.80;;;1.52;;
49910;SDS011;35803;53.096;5.844;2023-04-25T05:13:36;3.65;;;1.23;;
49910;SDS011;35803;53.096;5.844;2023-04-25T05:16:01;3.53;;;1.10;;
49910;SDS011;35803;53.096;5.844;2023-04-25T05:18:27;3.63;;;1.10;;
49910;SDS011;35803;53.096;5.844;2023-04-25T05:20:52;5.60;;;1.23;;
49910;SDS011;35803;53.096;5.844;2023-04-25T05:23:21;2.75;;;0.90;;
49910;SDS011;35803;53.096;5.844;2023-04-25T05:25:47;3.53;;;1.10;;
49910;SDS011;35803;53.096;5.844;2023-04-25T05:28:12;2.00;;;0.88;;
49910;SDS011;35803;53.096;5.844;2023-04-25T05:30:38;3.63;;;1.40;;
49910;SDS011;35803;53.096;5.844;2023-04-25T05:33:04;4.20;;;1.05;;
49910;SDS011;35803;53.096;5.844;2023-04-25T05:35:29;1.08;;;0.80;;
49910;SDS011;35803;53.096;5.844;2023-04-25T05:37:55;3.60;;;0.90;;
49910;SDS011;35803;53.096;5.844;2023-04-25T05:40:20;2.05;;;0.80;;
49910;SDS011;35803;53.096;5.844;2023-04-25T05:42:49;2.33;;;1.00;;
49910;SDS011;35803;53.096;5.844;2023-04-25T05:45:14;4.15;;;1.00;;
49910;SDS011;35803;53.096;5.844;2023-04-25T05:47:46;3.97;;;1.00;;
49910;SDS011;35803;53.096;5.844;2023-04-25T05:50:11;2.17;;;1.00;;
49910;SDS011;35803;53.096;5.844;2023-04-25T05:52:37;2.13;;;1.00;;
49910;SDS011;35803;53.096;5.844;2023-04-25T05:55:03;2.17;;;0.98;;
49910;SDS011;35803;53.096;5.844;2023-04-25T05:57:30;4.63;;;1.10;;
49910;SDS011;35803;53.096;5.844;2023-04-25T05:59:56;2.75;;;0.88;;
49910;SDS011;35803;53.096;5.844;2023-04-25T06:02:21;1.63;;;1.00;;
49910;SDS011;35803;53.096;5.844;2023-04-25T06:04:48;3.40;;;0.90;;
49910;SDS011;35803;53.096;5.844;2023-04-25T06:07:15;2.70;;;1.10;;
49910;SDS011;35803;53.096;5.844;2023-04-25T06:09:43;3.10;;;1.10;;
49910;SDS011;35803;53.096;5.844;2023-04-25T06:12:09;3.53;;;1.08;;
49910;SDS011;35803;53.096;5.844;2023-04-25T06:14:34;2.97;;;0.80;;
49910;SDS011;35803;53.096;5.844;2023-04-25T06:17:00;2.28;;;0.95;;
49910;SDS011;35803;53.096;5.844;2023-04-25T06:19:34;3.22;;;0.80;;
49910;SDS011;35803;53.096;5.844;2023-04-25T06:22:00;3.88;;;1.13;;
49910;SDS011;35803;53.096;5.844;2023-04-25T06:24:26;2.47;;;0.75;;
49910;SDS011;35803;53.096;5.844;2023-04-25T06:26:52;1.67;;;0.82;;
49910;SDS011;35803;53.096;5.844;2023-04-25T06:29:18;3.60;;;0.90;;
49910;SDS011;35803;53.096;5.844;2023-04-25T06:31:43;2.92;;;0.90;;
49910;SDS011;35803;53.096;5.844;2023-04-25T06:34:09;4.03;;;1.13;;
49910;SDS011;35803;53.096;5.844;2023-04-25T06:36:34;2.88;;;1.20;;
49910;SDS011;35803;53.096;5.844;2023-04-25T06:39:00;2.28;;;1.05;;
49910;SDS011;35803;53.096;5.844;2023-04-25T06:41:25;0.75;;;0.63;;
49910;SDS011;35803;53.096;5.844;2023-04-25T06:43:51;4.70;;;0.98;;
49910;SDS011;35803;53.096;5.844;2023-04-25T06:46:16;3.05;;;1.10;;
49910;SDS011;35803;53.096;5.844;2023-04-25T06:48:42;3.17;;;0.80;;
49910;SDS011;35803;53.096;5.844;2023-04-25T06:51:08;2.63;;;0.90;;
49910;SDS011;35803;53.096;5.844;2023-04-25T06:53:33;2.63;;;1.20;;
49910;SDS011;35803;53.096;5.844;2023-04-25T06:55:59;5.78;;;1.00;;
49910;SDS011;35803;53.096;5.844;2023-04-25T06:58:24;3.55;;;1.27;;
49910;SDS011;35803;53.096;5.844;2023-04-25T07:00:51;1.83;;;0.80;;
49910;SDS011;35803;53.096;5.844;2023-04-25T07:03:16;3.03;;;0.93;;
49910;SDS011;35803;53.096;5.844;2023-04-25T07:05:42;5.68;;;0.90;;
49910;SDS011;35803;53.096;5.844;2023-04-25T07:08:08;3.97;;;0.90;;
49910;SDS011;35803;53.096;5.844;2023-04-25T07:10:33;1.55;;;0.90;;
49910;SDS011;35803;53.096;5.844;2023-04-25T07:12:59;4.43;;;1.02;;
49910;SDS011;35803;53.096;5.844;2023-04-25T07:15:27;2.88;;;1.10;;
49910;SDS011;35803;53.096;5.844;2023-04-25T07:17:53;2.05;;;0.93;;
49910;SDS011;35803;53.096;5.844;2023-04-25T07:20:19;2.92;;;0.82;;
49910;SDS011;35803;53.096;5.844;2023-04-25T07:22:44;3.17;;;1.00;;
49910;SDS011;35803;53.096;5.844;2023-04-25T07:25:13;3.00;;;1.05;;
49910;SDS011;35803;53.096;5.844;2023-04-25T07:27:39;3.03;;;0.82;;
49910;SDS011;35803;53.096;5.844;2023-04-25T07:30:05;1.60;;;0.85;;
49910;SDS011;35803;53.096;5.844;2023-04-25T07:32:31;2.20;;;0.80;;
49910;SDS011;35803;53.096;5.844;2023-04-25T07:34:57;3.88;;;0.98;;
49910;SDS011;35803;53.096;5.844;2023-04-25T07:37:22;2.75;;;0.80;;
49910;SDS011;35803;53.096;5.844;2023-04-25T07:39:48;0.93;;;0.70;;
49910;SDS011;35803;53.096;5.844;2023-04-25T07:42:13;1.10;;;1.00;;
49910;SDS011;35803;53.096;5.844;2023-04-25T07:44:39;5.85;;;0.95;;
49910;SDS011;35803;53.096;5.844;2023-04-25T07:47:05;5.88;;;0.90;;
49910;SDS011;35803;53.096;5.844;2023-04-25T07:49:35;1.20;;;0.75;;
49910;SDS011;35803;53.096;5.844;2023-04-25T07:52:04;2.88;;;1.00;;
49910;SDS011;35803;53.096;5.844;2023-04-25T07:54:31;1.67;;;0.80;;
49910;SDS011;35803;53.096;5.844;2023-04-25T07:56:57;4.50;;;1.10;;
49910;SDS011;35803;53.096;5.844;2023-04-25T07:59:26;5.13;;;1.13;;
49910;SDS011;35803;53.096;5.844;2023-04-25T08:01:52;2.28;;;1.00;;
49910;SDS011;35803;53.096;5.844;2023-04-25T08:04:17;4.57;;;0.90;;
49910;SDS011;35803;53.096;5.844;2023-04-25T08:06:43;3.03;;;0.70;;
49910;SDS011;35803;53.096;5.844;2023-04-25T08:09:09;4.07;;;0.90;;
49910;SDS011;35803;53.096;5.844;2023-04-25T08:11:35;1.15;;;0.80;;
49910;SDS011;35803;53.096;5.844;2023-04-25T08:14:00;2.33;;;0.90;;
49910;SDS011;35803;53.096;5.844;2023-04-25T08:16:26;3.70;;;0.80;;
49910;SDS011;35803;53.096;5.844;2023-04-25T08:18:52;4.13;;;1.10;;
49910;SDS011;35803;53.096;5.844;2023-04-25T08:21:18;2.53;;;1.15;;
49910;SDS011;35803;53.096;5.844;2023-04-25T08:23:43;5.35;;;0.90;;
49910;SDS011;35803;53.096;5.844;2023-04-25T08:26:09;6.25;;;1.23;;
49910;SDS011;35803;53.096;5.844;2023-04-25T08:28:34;2.50;;;0.80;;
49910;SDS011;35803;53.096;5.844;2023-04-25T08:31:00;3.47;;;1.10;;
49910;SDS011;35803;53.096;5.844;2023-04-25T08:33:25;3.10;;;1.05;;
49910;SDS011;35803;53.096;5.844;2023-04-25T08:35:51;3.10;;;1.00;;
49910;SDS011;35803;53.096;5.844;2023-04-25T08:38:17;1.42;;;1.10;;
49910;SDS011;35803;53.096;5.844;2023-04-25T08:40:43;3.95;;;0.90;;
49910;SDS011;35803;53.096;5.844;2023-04-25T08:43:09;6.18;;;0.90;;
49910;SDS011;35803;53.096;5.844;2023-04-25T08:45:39;2.22;;;1.00;;
49910;SDS011;35803;53.096;5.844;2023-04-25T08:48:11;4.88;;;0.85;;
49910;SDS011;35803;53.096;5.844;2023-04-25T08:50:39;4.25;;;1.00;;
49910;SDS011;35803;53.096;5.844;2023-04-25T08:53:06;3.78;;;1.00;;
49910;SDS011;35803;53.096;5.844;2023-04-25T08:55:36;5.28;;;1.00;;
49910;SDS011;35803;53.096;5.844;2023-04-25T08:58:05;5.57;;;1.10;;
49910;SDS011;35803;53.096;5.844;2023-04-25T09:00:31;4.97;;;1.10;;
49910;SDS011;35803;53.096;5.844;2023-04-25T09:02:57;1.77;;;0.93;;
49910;SDS011;35803;53.096;5.844;2023-04-25T09:05:26;4.18;;;1.38;;
49910;SDS011;35803;53.096;5.844;2023-04-25T09:07:54;3.92;;;0.90;;
49910;SDS011;35803;53.096;5.844;2023-04-25T09:10:19;3.85;;;1.00;;
49910;SDS011;35803;53.096;5.844;2023-04-25T09:12:51;3.22;;;1.13;;
49910;SDS011;35803;53.096;5.844;2023-04-25T09:15:28;2.30;;;1.13;;
49910;SDS011;35803;53.096;5.844;2023-04-25T09:17:55;3.50;;;0.90;;
49910;SDS011;35803;53.096;5.844;2023-04-25T09:20:21;4.13;;;1.10;;
49910;SDS011;35803;53.096;5.844;2023-04-25T09:22:47;2.50;;;0.85;;
49910;SDS011;35803;53.096;5.844;2023-04-25T09:25:13;3.28;;;0.77;;
49910;SDS011;35803;53.096;5.844;2023-04-25T09:28:15;4.47;;;1.10;;
49910;SDS011;35803;53.096;5.844;2023-04-25T09:30:34;5.70;;;1.00;;
49910;SDS011;35803;53.096;5.844;2023-04-25T09:33:05;0.80;;;0.80;;
49910;SDS011;35803;53.096;5.844;2023-04-25T09:35:38;4.50;;;1.30;;
49910;SDS011;35803;53.096;5.844;2023-04-25T09:38:11;2.05;;;0.73;;
49910;SDS011;35803;53.096;5.844;2023-04-25T09:40:39;3.00;;;1.10;;
49910;SDS011;35803;53.096;5.844;2023-04-25T09:45:47;2.83;;;1.25;;
49910;SDS011;35803;53.096;5.844;2023-04-25T09:48:17;3.95;;;0.88;;
49910;SDS011;35803;53.096;5.844;2023-04-25T09:53:34;1.35;;;0.82;;
49910;SDS011;35803;53.096;5.844;2023-04-25T09:56:10;1.17;;;0.90;;
49910;SDS011;35803;53.096;5.844;2023-04-25T09:58:37;0.80;;;0.68;;
49910;SDS011;35803;53.096;5.844;2023-04-25T10:01:07;1.85;;;0.85;;
49910;SDS011;35803;53.096;5.844;2023-04-25T10:03:35;1.35;;;0.70;;
49910;SDS011;35803;53.096;5.844;2023-04-25T10:06:08;3.83;;;0.80;;
49910;SDS011;35803;53.096;5.844;2023-04-25T10:08:38;1.15;;;0.90;;
49910;SDS011;35803;53.096;5.844;2023-04-25T10:11:05;2.85;;;1.25;;
49910;SDS011;35803;53.096;5.844;2023-04-25T10:13:32;3.10;;;0.90;;
49910;SDS011;35803;53.096;5.844;2023-04-25T10:15:58;2.92;;;1.00;;
49910;SDS011;35803;53.096;5.844;2023-04-25T10:18:26;1.73;;;0.90;;
49910;SDS011;35803;53.096;5.844;2023-04-25T10:20:56;1.55;;;0.80;;
49910;SDS011;35803;53.096;5.844;2023-04-25T10:23:23;3.42;;;1.25;;
49910;SDS011;35803;53.096;5.844;2023-04-25T10:25:49;3.78;;;1.00;;
49910;SDS011;35803;53.096;5.844;2023-04-25T10:28:16;4.43;;;0.63;;
49910;SDS011;35803;53.096;5.844;2023-04-25T10:30:57;3.33;;;0.82;;
49910;SDS011;35803;53.096;5.844;2023-04-25T10:33:32;2.83;;;0.70;;
49910;SDS011;35803;53.096;5.844;2023-04-25T10:38:33;3.67;;;0.80;;
49910;SDS011;35803;53.096;5.844;2023-04-25T10:41:02;2.38;;;1.05;;
49910;SDS011;35803;53.096;5.844;2023-04-25T10:46:23;1.65;;;0.65;;
49910;SDS011;35803;53.096;5.844;2023-04-25T10:48:53;4.00;;;0.98;;
49910;SDS011;35803;53.096;5.844;2023-04-25T10:51:20;3.03;;;0.88;;
49910;SDS011;35803;53.096;5.844;2023-04-25T10:53:47;2.70;;;0.93;;
49910;SDS011;35803;53.096;5.844;2023-04-25T10:56:18;2.22;;;0.80;;
49910;SDS011;35803;53.096;5.844;2023-04-25T10:58:44;1.50;;;0.82;;
49910;SDS011;35803;53.096;5.844;2023-04-25T11:01:11;2.55;;;0.77;;
49910;SDS011;35803;53.096;5.844;2023-04-25T11:03:38;2.55;;;0.80;;
49910;SDS011;35803;53.096;5.844;2023-04-25T11:06:06;6.57;;;1.00;;
49910;SDS011;35803;53.096;5.844;2023-04-25T11:08:47;2.80;;;1.05;;
49910;SDS011;35803;53.096;5.844;2023-04-25T11:11:15;2.40;;;0.80;;
49910;SDS011;35803;53.096;5.844;2023-04-25T11:13:44;1.33;;;0.70;;
49910;SDS011;35803;53.096;5.844;2023-04-25T11:16:10;1.90;;;1.00;;
49910;SDS011;35803;53.096;5.844;2023-04-25T11:18:36;1.45;;;0.70;;
49910;SDS011;35803;53.096;5.844;2023-04-25T11:21:03;2.10;;;0.77;;
49910;SDS011;35803;53.096;5.844;2023-04-25T11:23:29;4.70;;;0.90;;
49910;SDS011;35803;53.096;5.844;2023-04-25T11:25:55;3.35;;;0.80;;
49910;SDS011;35803;53.096;5.844;2023-04-25T11:28:21;1.98;;;0.90;;
49910;SDS011;35803;53.096;5.844;2023-04-25T11:30:48;1.45;;;0.93;;
49910;SDS011;35803;53.096;5.844;2023-04-25T11:33:15;7.57;;;1.35;;
49910;SDS011;35803;53.096;5.844;2023-04-25T11:35:44;3.45;;;1.10;;
49910;SDS011;35803;53.096;5.844;2023-04-25T11:38:10;2.40;;;1.10;;
49910;SDS011;35803;53.096;5.844;2023-04-25T11:40:36;2.10;;;0.95;;
49910;SDS011;35803;53.096;5.844;2023-04-25T11:43:02;2.10;;;0.98;;
49910;SDS011;35803;53.096;5.844;2023-04-25T11:45:28;3.90;;;0.85;;
49910;SDS011;35803;53.096;5.844;2023-04-25T11:47:55;4.85;;;1.00;;
49910;SDS011;35803;53.096;5.844;2023-04-25T11:50:20;4.40;;;1.08;;
49910;SDS011;35803;53.096;5.844;2023-04-25T11:52:47;5.43;;;1.48;;
49910;SDS011;35803;53.096;5.844;2023-04-25T11:55:14;4.32;;;1.15;;
49910;SDS011;35803;53.096;5.844;2023-04-25T11:57:41;5.65;;;1.25;;
49910;SDS011;35803;53.096;5.844;2023-04-25T12:00:12;3.30;;;1.08;;
49910;SDS011;35803;53.096;5.844;2023-04-25T12:02:43;2.30;;;0.70;;
49910;SDS011;35803;53.096;5.844;2023-04-25T12:05:10;3.03;;;0.98;;
49910;SDS011;35803;53.096;5.844;2023-04-25T12:07:37;1.50;;;0.63;;
49910;SDS011;35803;53.096;5.844;2023-04-25T12:10:10;3.33;;;0.75;;
49910;SDS011;35803;53.096;5.844;2023-04-25T12:12:36;3.33;;;0.80;;
49910;SDS011;35803;53.096;5.844;2023-04-25T12:17:45;2.78;;;0.80;;
49910;SDS011;35803;53.096;5.844;2023-04-25T12:20:12;3.65;;;0.70;;
49910;SDS011;35803;53.096;5.844;2023-04-25T12:22:43;5.25;;;1.77;;
49910;SDS011;35803;53.096;5.844;2023-04-25T12:25:13;1.45;;;0.60;;
49910;SDS011;35803;53.096;5.844;2023-04-25T12:33:29;6.18;;;1.00;;
49910;SDS011;35803;53.096;5.844;2023-04-25T12:35:56;2.15;;;0.80;;
49910;SDS011;35803;53.096;5.844;2023-04-25T12:38:29;1.88;;;1.10;;
49910;SDS011;35803;53.096;5.844;2023-04-25T12:40:56;2.70;;;0.68;;
49910;SDS011;35803;53.096;5.844;2023-04-25T12:43:22;2.78;;;0.98;;
49910;SDS011;35803;53.096;5.844;2023-04-25T12:45:48;3.00;;;0.80;;
49910;SDS011;35803;53.096;5.844;2023-04-25T12:48:15;2.65;;;0.90;;
49910;SDS011;35803;53.096;5.844;2023-04-25T12:50:41;1.55;;;1.00;;
49910;SDS011;35803;53.096;5.844;2023-04-25T12:53:07;3.97;;;0.70;;
49910;SDS011;35803;53.096;5.844;2023-04-25T12:55:32;1.90;;;0.80;;
49910;SDS011;35803;53.096;5.844;2023-04-25T12:58:01;3.78;;;0.73;;
49910;SDS011;35803;53.096;5.844;2023-04-25T13:00:28;6.00;;;0.85;;
49910;SDS011;35803;53.096;5.844;2023-04-25T13:02:54;2.28;;;0.85;;
49910;SDS011;35803;53.096;5.844;2023-04-25T13:05:20;4.10;;;0.90;;
49910;SDS011;35803;53.096;5.844;2023-04-25T13:07:46;3.38;;;0.88;;
49910;SDS011;35803;53.096;5.844;2023-04-25T13:10:11;3.25;;;0.60;;
49910;SDS011;35803;53.096;5.844;2023-04-25T13:12:37;2.53;;;0.73;;
49910;SDS011;35803;53.096;5.844;2023-04-25T13:15:03;3.30;;;0.80;;
49910;SDS011;35803;53.096;5.844;2023-04-25T13:17:28;2.10;;;1.10;;
49910;SDS011;35803;53.096;5.844;2023-04-25T13:19:55;2.03;;;0.90;;
49910;SDS011;35803;53.096;5.844;2023-04-25T13:22:20;5.53;;;0.90;;
49910;SDS011;35803;53.096;5.844;2023-04-25T13:24:46;2.63;;;1.10;;
49910;SDS011;35803;53.096;5.844;2023-04-25T13:27:18;3.17;;;0.70;;
49910;SDS011;35803;53.096;5.844;2023-04-25T13:29:43;2.53;;;0.80;;
49910;SDS011;35803;53.096;5.844;2023-04-25T13:32:09;2.15;;;0.80;;
49910;SDS011;35803;53.096;5.844;2023-04-25T13:34:34;4.40;;;1.05;;
49910;SDS011;35803;53.096;5.844;2023-04-25T13:37:00;4.28;;;0.93;;
49910;SDS011;35803;53.096;5.844;2023-04-25T13:39:26;2.38;;;0.90;;
49910;SDS011;35803;53.096;5.844;2023-04-25T13:41:51;2.40;;;0.80;;
49910;SDS011;35803;53.096;5.844;2023-04-25T13:44:19;2.35;;;0.90;;
49910;SDS011;35803;53.096;5.844;2023-04-25T13:46:45;2.08;;;0.70;;
49910;SDS011;35803;53.096;5.844;2023-04-25T13:49:11;2.05;;;1.13;;
49910;SDS011;35803;53.096;5.844;2023-04-25T13:51:37;3.38;;;0.90;;
49910;SDS011;35803;53.096;5.844;2023-04-25T13:54:02;2.78;;;0.85;;
49910;SDS011;35803;53.096;5.844;2023-04-25T13:56:31;2.53;;;0.75;;
49910;SDS011;35803;53.096;5.844;2023-04-25T13:58:56;3.15;;;0.88;;
49910;SDS011;35803;53.096;5.844;2023-04-25T14:01:22;4.68;;;1.15;;
49910;SDS011;35803;53.096;5.844;2023-04-25T14:03:48;2.20;;;0.90;;
49910;SDS011;35803;53.096;5.844;2023-04-25T14:06:13;3.70;;;0.70;;
49910;SDS011;35803;53.096;5.844;2023-04-25T14:08:45;4.28;;;0.90;;
49910;SDS011;35803;53.096;5.844;2023-04-25T14:11:10;5.35;;;1.00;;
49910;SDS011;35803;53.096;5.844;2023-04-25T14:13:36;4.53;;;0.98;;
49910;SDS011;35803;53.096;5.844;2023-04-25T14:16:01;2.30;;;0.98;;
49910;SDS011;35803;53.096;5.844;2023-04-25T14:18:27;4.95;;;0.88;;
49910;SDS011;35803;53.096;5.844;2023-04-25T14:20:53;2.63;;;0.80;;
49910;SDS011;35803;53.096;5.844;2023-04-25T14:23:18;4.43;;;1.05;;
49910;SDS011;35803;53.096;5.844;2023-04-25T14:25:44;2.53;;;1.00;;
49910;SDS011;35803;53.096;5.844;2023-04-25T14:28:09;3.75;;;1.05;;
49910;SDS011;35803;53.096;5.844;2023-04-25T14:30:35;5.63;;;1.08;;
49910;SDS011;35803;53.096;5.844;2023-04-25T14:33:01;0.95;;;0.60;;
49910;SDS011;35803;53.096;5.844;2023-04-25T14:35:26;3.85;;;1.05;;
49910;SDS011;35803;53.096;5.844;2023-04-25T14:37:52;5.43;;;1.23;;
49910;SDS011;35803;53.096;5.844;2023-04-25T14:40:19;3.83;;;1.23;;
49910;SDS011;35803;53.096;5.844;2023-04-25T14:42:50;3.30;;;1.00;;
49910;SDS011;35803;53.096;5.844;2023-04-25T14:45:16;2.90;;;0.90;;
49910;SDS011;35803;53.096;5.844;2023-04-25T14:47:43;3.60;;;1.00;;
49910;SDS011;35803;53.096;5.844;2023-04-25T14:50:08;4.30;;;1.17;;
49910;SDS011;35803;53.096;5.844;2023-04-25T14:52:35;2.45;;;1.05;;
49910;SDS011;35803;53.096;5.844;2023-04-25T14:55:01;7.03;;;1.20;;
49910;SDS011;35803;53.096;5.844;2023-04-25T14:57:30;2.72;;;1.05;;
49910;SDS011;35803;53.096;5.844;2023-04-25T14:59:57;1.45;;;0.88;;
49910;SDS011;35803;53.096;5.844;2023-04-25T15:02:23;3.10;;;1.25;;
49910;SDS011;35803;53.096;5.844;2023-04-25T15:04:49;1.95;;;0.88;;